createdAt,value
2022-07-28T00:04:37.148Z,100503.75
2022-07-28T00:09:39.836Z,100500.00
2022-07-28T00:14:42.844Z,100498.09
2022-07-28T00:19:46.918Z,100506.63
2022-07-28T00:24:49.684Z,100509.00
2022-07-28T00:29:53.004Z,100504.06
2022-07-28T00:34:57.058Z,100506.75
2022-07-28T00:39:59.708Z,100507.72
2022-07-28T00:45:02.448Z,100492.41
2022-07-28T00:50:07.365Z,100485.94
2022-07-28T00:55:11.037Z,100485.47
2022-07-28T01:00:14.341Z,100492.06
2022-07-28T01:05:18.621Z,100480.00
2022-07-28T01:10:46.413Z,100492.59
2022-07-28T01:15:54.144Z,100492.59
2022-07-28T01:21:03.738Z,100493.44
2022-07-28T01:26:15.259Z,100492.28
2022-07-28T01:31:23.581Z,100490.66
2022-07-28T01:36:30.066Z,100495.78
2022-07-28T01:41:33.766Z,100489.50
2022-07-28T01:46:38.543Z,100495.78
2022-07-28T01:51:41.863Z,100497.75
2022-07-28T01:56:45.301Z,100491.00
2022-07-28T02:01:50.845Z,100482.28
2022-07-28T02:06:54.072Z,100486.56
2022-07-28T02:11:57.213Z,100489.66
2022-07-28T02:17:04.659Z,100488.69
2022-07-28T02:22:08.064Z,100492.97
2022-07-28T02:27:18.222Z,100497.41
2022-07-28T02:32:28.674Z,100499.88
2022-07-28T02:37:36.193Z,100500.94
2022-07-28T02:42:39.379Z,100506.66
2022-07-28T02:47:46.962Z,100503.22
2022-07-28T02:52:50.740Z,100511.00
2022-07-28T02:57:56.774Z,100515.50
2022-07-28T03:03:01.510Z,100514.72
2022-07-28T03:08:04.287Z,100519.19
2022-07-28T03:13:08.030Z,100519.53
2022-07-28T03:18:12.179Z,100526.78
2022-07-28T03:23:15.253Z,100533.09
2022-07-28T03:28:21.261Z,100530.44
2022-07-28T03:33:25.653Z,100539.03
2022-07-28T03:38:34.137Z,100538.66
2022-07-28T03:43:37.032Z,100540.31
2022-07-28T03:48:41.228Z,100536.84
2022-07-28T03:53:44.296Z,100547.13
2022-07-28T03:58:47.025Z,100555.53
2022-07-28T04:03:51.158Z,100546.34
2022-07-28T04:08:53.933Z,100549.53
2022-07-28T04:13:56.782Z,100551.31
2022-07-28T04:19:00.996Z,100555.16
2022-07-28T04:24:03.798Z,100549.34
2022-07-28T04:29:06.939Z,100548.38
2022-07-28T04:34:11.563Z,100554.38
2022-07-28T04:39:14.418Z,100541.75
2022-07-28T04:44:17.783Z,100534.22
2022-07-28T04:49:22.447Z,100528.63
2022-07-28T04:54:26.868Z,100527.16
2022-07-28T04:59:29.704Z,100518.41
2022-07-28T05:04:36.172Z,100528.44
2022-07-28T05:09:39.243Z,100523.34
2022-07-28T05:14:42.078Z,100530.25
2022-07-28T05:19:46.190Z,100539.13
2022-07-28T05:24:48.871Z,100530.06
2022-07-28T05:29:51.854Z,100529.31
2022-07-28T05:34:56.150Z,100537.31
2022-07-28T05:39:59.046Z,100544.03
2022-07-28T05:45:01.806Z,100551.56
2022-07-28T05:50:10.736Z,100552.38
2022-07-28T05:55:14.034Z,100549.28
2022-07-28T06:00:18.590Z,100547.25
2022-07-28T06:05:23.684Z,100539.97
2022-07-28T06:10:27.792Z,100545.47
2022-07-28T06:15:30.596Z,100547.28
2022-07-28T06:20:35.436Z,100553.81
2022-07-28T06:25:38.676Z,100556.25
2022-07-28T06:30:41.559Z,100560.00
2022-07-28T06:35:48.312Z,100557.06
2022-07-28T06:40:54.381Z,100561.06
2022-07-28T06:45:57.241Z,100564.44
2022-07-28T06:51:01.316Z,100560.94
2022-07-28T06:56:05.453Z,100568.84
2022-07-28T07:01:09.000Z,100572.88
2022-07-28T07:06:13.336Z,100570.56
2022-07-28T07:11:16.150Z,100555.03
2022-07-28T07:16:19.176Z,100557.03
2022-07-28T07:21:23.435Z,100552.59
2022-07-28T07:26:28.999Z,100560.34
2022-07-28T07:31:33.317Z,100564.78
2022-07-28T07:36:37.393Z,100555.25
2022-07-28T07:41:58.722Z,100551.94
2022-07-28T07:47:03.326Z,100546.63
2022-07-28T07:52:09.458Z,100539.38
2022-07-28T07:57:12.215Z,100535.47
2022-07-28T08:02:14.921Z,100541.19
2022-07-28T08:07:22.001Z,100529.38
2022-07-28T08:12:25.691Z,100530.50
2022-07-28T08:17:28.777Z,100530.56
2022-07-28T08:22:32.918Z,100524.09
2022-07-28T08:27:35.715Z,100523.91
2022-07-28T08:32:39.156Z,100523.50
2022-07-28T08:37:43.535Z,100524.13
2022-07-28T08:42:51.906Z,100532.34
2022-07-28T08:48:12.760Z,100527.84
2022-07-28T08:53:17.018Z,100515.97
2022-07-28T08:58:20.331Z,100509.81
2022-07-28T09:03:23.321Z,100517.19
2022-07-28T09:08:27.735Z,100522.72
2022-07-28T09:13:31.085Z,100518.78
2022-07-28T09:18:33.973Z,100524.28
2022-07-28T09:23:45.581Z,100508.28
2022-07-28T09:28:54.030Z,100519.16
2022-07-28T09:34:00.437Z,100510.69
2022-07-28T09:39:05.035Z,100513.13
2022-07-28T09:44:19.122Z,100512.53
2022-07-28T09:49:28.074Z,100507.97
2022-07-28T09:54:37.379Z,100501.44
2022-07-28T09:59:44.199Z,100495.91
2022-07-28T10:04:55.148Z,100488.59
2022-07-28T10:10:01.183Z,100483.84
2022-07-28T10:15:34.368Z,100481.78
2022-07-28T10:20:38.262Z,100479.97
2022-07-28T10:25:44.665Z,100480.03
2022-07-28T10:30:48.916Z,100472.03
2022-07-28T10:35:55.304Z,100464.06
2022-07-28T10:41:03.015Z,100469.94
2022-07-28T10:46:08.861Z,100462.41
2022-07-28T10:51:18.824Z,100462.69
2022-07-28T10:56:31.479Z,100461.25
2022-07-28T11:01:48.284Z,100452.16
2022-07-28T11:06:52.305Z,100456.66
2022-07-28T11:11:57.934Z,100452.50
2022-07-28T11:17:24.381Z,100450.66
2022-07-28T11:22:36.108Z,100447.28
2022-07-28T11:28:05.390Z,100442.75
2022-07-28T11:33:09.228Z,100441.94
2022-07-28T11:38:13.841Z,100438.13
2022-07-28T11:43:37.516Z,100437.41
2022-07-28T11:48:43.561Z,100425.28
2022-07-28T11:53:47.755Z,100433.88
2022-07-28T11:58:57.492Z,100423.56
2022-07-28T12:04:00.976Z,100425.97
2022-07-28T12:09:06.178Z,100405.66
2022-07-28T12:14:12.210Z,100397.88
2022-07-28T12:19:17.447Z,100406.28
2022-07-28T12:24:28.013Z,100400.34
2022-07-28T12:29:35.663Z,100400.69
2022-07-28T12:34:40.510Z,100379.94
2022-07-28T12:39:44.256Z,100366.63
2022-07-28T12:44:51.280Z,100362.34
2022-07-28T12:50:10.016Z,100359.75
2022-07-28T12:55:23.133Z,100359.75
2022-07-28T13:00:30.863Z,100352.97
2022-07-28T13:05:55.378Z,100346.03
2022-07-28T13:10:59.035Z,100343.47
2022-07-28T13:16:23.042Z,100334.91
2022-07-28T13:21:38.791Z,100330.06
2022-07-28T13:26:44.463Z,100333.06
2022-07-28T13:31:48.961Z,100319.03
2022-07-28T13:36:52.380Z,100323.84
2022-07-28T13:41:59.108Z,100321.84
2022-07-28T13:47:05.835Z,100314.03
2022-07-28T13:52:12.814Z,100321.31
2022-07-28T13:57:16.655Z,100305.59
2022-07-28T14:02:22.065Z,100312.66
2022-07-28T14:07:30.134Z,100307.66
2022-07-28T14:12:32.928Z,100299.75
2022-07-28T14:17:46.210Z,100295.56
2022-07-28T14:22:49.253Z,100285.34
2022-07-28T14:27:52.582Z,100290.88
2022-07-28T14:32:57.014Z,100288.34
2022-07-28T14:43:22.572Z,100280.25
2022-07-28T14:48:30.899Z,100278.16
2022-07-28T14:53:35.111Z,100263.88
2022-07-28T14:58:43.439Z,100262.50
2022-07-28T15:03:47.453Z,100262.75
2022-07-28T15:08:50.220Z,100257.94
2022-07-28T15:13:52.943Z,100257.63
2022-07-28T15:18:57.140Z,100259.59
2022-07-28T15:23:59.900Z,100259.88
2022-07-28T15:29:02.727Z,100264.13
2022-07-28T15:34:06.969Z,100260.97
2022-07-28T15:39:14.790Z,100252.84
2022-07-28T15:44:22.351Z,100251.13
2022-07-28T15:49:30.274Z,100246.03
2022-07-28T15:54:33.054Z,100251.19
2022-07-28T15:59:49.063Z,100248.88
2022-07-28T16:04:54.569Z,100244.19
2022-07-28T16:09:57.913Z,100239.25
2022-07-28T16:15:00.747Z,100238.41
2022-07-28T16:20:05.695Z,100230.31
2022-07-28T16:25:16.644Z,100230.97
2022-07-28T16:30:20.057Z,100222.94
2022-07-28T16:35:24.173Z,100229.41
2022-07-28T16:40:27.053Z,100234.47
2022-07-28T16:45:29.832Z,100224.25
2022-07-28T16:50:35.476Z,100226.38
2022-07-28T16:55:38.229Z,100225.38
2022-07-28T17:00:41.020Z,100221.91
2022-07-28T17:05:45.328Z,100228.91
2022-07-28T17:10:48.487Z,100225.63
2022-07-28T17:15:51.272Z,100222.38
2022-07-28T17:20:58.749Z,100235.28
2022-07-28T17:31:26.826Z,100229.22
2022-07-28T17:36:33.963Z,100228.13
2022-07-28T17:41:37.042Z,100235.41
2022-07-28T17:46:39.927Z,100229.09
2022-07-28T17:51:45.025Z,100228.97
2022-07-28T17:56:49.576Z,100233.00
2022-07-28T18:01:52.338Z,100229.78
2022-07-28T18:06:56.390Z,100236.44
2022-07-28T18:11:59.491Z,100231.03
2022-07-28T18:17:02.609Z,100227.16
2022-07-28T18:22:06.784Z,100232.16
2022-07-28T18:27:09.559Z,100227.09
2022-07-28T18:32:14.509Z,100228.69
2022-07-28T18:37:18.906Z,100228.78
2022-07-28T18:42:21.802Z,100233.09
2022-07-28T18:47:25.091Z,100229.28
2022-07-28T18:52:29.299Z,100239.16
2022-07-28T18:57:32.030Z,100241.06
2022-07-28T19:02:34.845Z,100240.41
2022-07-28T19:07:38.994Z,100248.34
2022-07-28T19:12:41.825Z,100257.63
2022-07-28T19:17:44.767Z,100258.88
2022-07-28T19:22:48.905Z,100261.34
2022-07-28T19:27:54.154Z,100260.25
2022-07-28T19:32:56.930Z,100269.00
2022-07-28T19:38:02.642Z,100272.47
2022-07-28T19:43:05.390Z,100276.91
2022-07-28T19:48:08.343Z,100287.84
2022-07-28T19:53:14.864Z,100288.75
2022-07-28T19:58:18.112Z,100296.34
2022-07-28T20:04:01.474Z,100295.34
2022-07-28T20:08:45.541Z,100291.22
2022-07-28T20:13:49.436Z,100293.47
2022-07-28T20:18:52.879Z,100301.72
2022-07-28T20:23:57.979Z,100297.13
2022-07-28T20:29:00.941Z,100297.50
2022-07-28T20:34:06.635Z,100296.56
2022-07-28T20:39:34.433Z,100296.25
2022-07-28T20:44:33.867Z,100305.59
2022-07-28T20:49:36.943Z,100302.59
2022-07-28T20:54:41.345Z,100307.63
2022-07-28T20:59:44.305Z,100312.59
2022-07-28T21:04:50.295Z,100309.94
2022-07-28T21:09:54.871Z,100313.88
2022-07-28T21:14:57.745Z,100316.81
2022-07-28T21:20:00.430Z,100327.56
2022-07-28T21:25:05.198Z,100322.69
2022-07-28T21:30:08.989Z,100323.75
2022-07-28T21:35:14.356Z,100317.84
2022-07-28T21:40:18.705Z,100321.38
2022-07-28T21:45:22.406Z,100322.81
2022-07-28T21:50:25.321Z,100317.91
2022-07-28T21:55:29.737Z,100315.50
2022-07-28T22:00:32.851Z,100325.75
2022-07-28T22:05:35.652Z,100331.28
2022-07-28T22:10:39.955Z,100351.00
2022-07-28T22:15:42.703Z,100350.38
2022-07-28T22:20:45.794Z,100354.28
2022-07-28T22:25:49.856Z,100355.72
2022-07-28T22:30:53.337Z,100363.75
2022-07-28T22:35:56.120Z,100370.75
2022-07-28T22:41:00.697Z,100363.97
2022-07-28T22:46:03.636Z,100368.72
2022-07-28T22:51:10.912Z,100369.94
2022-07-28T22:56:14.996Z,100358.88
2022-07-28T23:01:17.847Z,100360.53
2022-07-28T23:06:20.886Z,100364.22
2022-07-28T23:11:25.148Z,100364.63
2022-07-28T23:16:28.056Z,100382.66
2022-07-28T23:21:30.837Z,100370.34
2022-07-28T23:26:34.907Z,100370.16
2022-07-28T23:31:37.704Z,100371.78
2022-07-28T23:36:40.504Z,100373.44
2022-07-28T23:41:44.581Z,100359.69
2022-07-28T23:46:47.343Z,100361.97
2022-07-28T23:51:50.114Z,100356.22
2022-07-28T23:56:56.502Z,100354.78
